createdAt,value
2023-05-14T00:03:06.250Z,9.97
2023-05-14T00:08:10.073Z,9.91
2023-05-14T00:13:15.885Z,9.77
2023-05-14T00:18:26.865Z,9.71
2023-05-14T00:23:29.721Z,9.69
2023-05-14T00:28:34.937Z,9.74
2023-05-14T00:33:37.784Z,9.70
2023-05-14T00:38:41.541Z,9.72
2023-05-14T00:43:50.199Z,9.58
2023-05-14T00:48:53.200Z,9.52
2023-05-14T00:53:55.968Z,9.50
2023-05-14T00:59:02.162Z,9.51
2023-05-14T01:04:08.167Z,9.44
2023-05-14T01:09:14.028Z,9.47
2023-05-14T01:14:19.553Z,9.55
2023-05-14T01:19:24.759Z,9.35
2023-05-14T01:24:31.448Z,9.37
2023-05-14T01:29:34.976Z,9.33
2023-05-14T01:34:41.425Z,9.29
2023-05-14T01:39:45.573Z,9.28
2023-05-14T01:44:52.375Z,9.36
2023-05-14T01:49:58.300Z,9.38
2023-05-14T01:55:01.771Z,9.35
2023-05-14T02:00:06.537Z,9.31
2023-05-14T02:05:11.646Z,9.36
2023-05-14T02:10:18.302Z,9.29
2023-05-14T02:15:22.016Z,9.31
2023-05-14T02:20:28.796Z,9.21
2023-05-14T02:25:32.388Z,9.20
2023-05-14T02:30:35.170Z,9.39
2023-05-14T02:35:38.687Z,9.23
2023-05-14T02:40:43.739Z,9.23
2023-05-14T02:45:47.186Z,9.12
2023-05-14T02:50:54.087Z,9.15
2023-05-14T02:56:02.311Z,9.09
2023-05-14T03:01:05.392Z,9.02
2023-05-14T03:06:08.591Z,9.17
2023-05-14T03:11:11.380Z,9.03
2023-05-14T03:16:15.939Z,9.03
2023-05-14T03:21:18.841Z,9.03
2023-05-14T03:26:22.058Z,9.00
2023-05-14T03:31:27.225Z,8.89
2023-05-14T03:36:34.994Z,8.82
2023-05-14T03:41:40.113Z,8.83
2023-05-14T03:46:44.746Z,9.00
2023-05-14T03:51:47.594Z,9.06
2023-05-14T03:56:51.967Z,8.98
2023-05-14T04:01:56.251Z,8.93
2023-05-14T04:07:00.092Z,8.90
2023-05-14T04:12:11.106Z,8.97
2023-05-14T04:17:17.928Z,8.93
2023-05-14T04:22:27.767Z,9.10
2023-05-14T04:27:30.995Z,9.18
2023-05-14T04:32:36.675Z,9.05
2023-05-14T04:37:39.451Z,9.08
2023-05-14T04:42:44.691Z,9.21
2023-05-14T04:47:47.503Z,9.23
2023-05-14T04:52:50.878Z,9.28
2023-05-14T04:57:56.448Z,9.18
2023-05-14T05:03:04.982Z,9.07
2023-05-14T05:08:12.140Z,9.13
2023-05-14T05:13:17.230Z,8.98
2023-05-14T05:18:21.503Z,8.89
2023-05-14T05:23:25.357Z,8.88
2023-05-14T05:28:28.592Z,8.94
2023-05-14T05:33:31.211Z,8.97
2023-05-14T05:38:37.051Z,8.99
2023-05-14T05:43:42.346Z,8.98
2023-05-14T05:48:46.299Z,8.96
2023-05-14T05:53:49.515Z,9.03
2023-05-14T05:58:58.243Z,9.04
2023-05-14T06:04:05.574Z,9.09
2023-05-14T06:09:09.017Z,9.05
2023-05-14T06:14:19.718Z,9.11
2023-05-14T06:19:25.350Z,9.29
2023-05-14T06:24:31.087Z,9.36
2023-05-14T06:29:34.226Z,9.42
2023-05-14T06:34:40.836Z,9.65
2023-05-14T06:39:54.699Z,9.55
2023-05-14T06:45:11.555Z,9.75
2023-05-14T06:50:14.865Z,9.57
2023-05-14T06:55:24.681Z,9.77
2023-05-14T07:00:29.294Z,9.70
2023-05-14T07:05:34.364Z,9.67
2023-05-14T07:10:40.622Z,9.82
2023-05-14T07:15:48.534Z,9.62
2023-05-14T07:21:01.732Z,9.84
2023-05-14T07:26:05.181Z,10.24
2023-05-14T07:31:10.931Z,10.60
2023-05-14T07:36:18.857Z,10.67
2023-05-14T07:41:27.106Z,10.03
2023-05-14T07:46:31.308Z,10.47
2023-05-14T07:51:35.797Z,10.46
2023-05-14T07:56:39.412Z,10.64
2023-05-14T08:01:48.333Z,10.81
2023-05-14T08:06:58.414Z,10.90
2023-05-14T08:12:05.818Z,10.87
2023-05-14T08:17:18.710Z,11.04
2023-05-14T08:22:26.349Z,11.25
2023-05-14T08:27:35.420Z,10.99
2023-05-14T08:32:39.768Z,10.98
2023-05-14T08:37:43.703Z,10.61
2023-05-14T08:42:57.344Z,10.46
2023-05-14T08:48:03.182Z,10.50
2023-05-14T08:53:07.753Z,10.95
2023-05-14T08:58:13.825Z,10.91
2023-05-14T09:03:18.805Z,10.93
2023-05-14T09:08:24.528Z,10.61
2023-05-14T09:13:28.425Z,11.06
2023-05-14T09:18:35.302Z,11.30
2023-05-14T09:23:42.584Z,11.38
2023-05-14T09:28:47.401Z,11.68
2023-05-14T09:33:54.406Z,11.45
2023-05-14T09:39:00.686Z,11.47
2023-05-14T09:44:06.678Z,11.83
2023-05-14T09:49:10.722Z,11.85
2023-05-14T09:54:17.455Z,12.35
2023-05-14T09:59:20.684Z,12.44
2023-05-14T10:04:29.798Z,12.56
2023-05-14T10:09:47.060Z,11.62
2023-05-14T10:15:03.045Z,11.52
2023-05-14T10:20:11.963Z,11.08
2023-05-14T10:25:17.259Z,11.31
2023-05-14T10:30:24.631Z,11.37
2023-05-14T10:35:29.571Z,11.30
2023-05-14T10:40:33.477Z,11.39
2023-05-14T10:45:36.336Z,11.33
2023-05-14T10:50:45.247Z,11.23
2023-05-14T10:55:52.520Z,11.17
2023-05-14T11:00:58.112Z,11.55
2023-05-14T11:06:05.336Z,11.67
2023-05-14T11:11:13.764Z,11.67
2023-05-14T11:16:23.300Z,12.25
2023-05-14T11:21:27.643Z,12.48
2023-05-14T11:26:35.167Z,12.76
2023-05-14T11:31:52.664Z,12.39
2023-05-14T11:37:08.861Z,12.83
2023-05-14T11:42:21.746Z,13.27
2023-05-14T11:47:26.396Z,12.84
2023-05-14T11:52:34.608Z,13.20
2023-05-14T11:57:42.217Z,13.60
2023-05-14T12:02:46.356Z,13.48
2023-05-14T12:07:56.798Z,14.20
2023-05-14T12:13:07.371Z,15.02
2023-05-14T12:18:24.650Z,15.84
2023-05-14T12:23:46.356Z,16.25
2023-05-14T12:28:58.160Z,15.87
2023-05-14T12:34:02.192Z,16.37
2023-05-14T12:39:09.098Z,16.36
2023-05-14T12:44:16.599Z,16.15
2023-05-14T12:49:20.097Z,16.03
2023-05-14T12:54:29.634Z,16.01
2023-05-14T12:59:44.793Z,15.35
2023-05-14T13:04:49.169Z,16.12
2023-05-14T13:09:55.506Z,15.06
2023-05-14T13:15:01.788Z,14.99
2023-05-14T13:20:07.579Z,15.23
2023-05-14T13:25:23.852Z,15.69
2023-05-14T13:30:49.453Z,15.80
2023-05-14T13:36:13.302Z,15.93
2023-05-14T13:41:41.397Z,15.77
2023-05-14T13:47:10.497Z,15.77
2023-05-14T13:52:35.443Z,16.08
2023-05-14T13:58:01.914Z,16.73
2023-05-14T14:03:26.483Z,16.78
2023-05-14T14:08:51.731Z,16.09
2023-05-14T14:14:16.281Z,16.66
2023-05-14T14:19:42.040Z,17.03
2023-05-14T14:25:05.501Z,16.44
2023-05-14T14:30:35.323Z,17.00
2023-05-14T14:35:59.101Z,17.78
2023-05-14T14:41:22.818Z,18.41
2023-05-14T14:46:52.316Z,17.26
2023-05-14T14:52:18.327Z,17.67
2023-05-14T14:57:45.556Z,18.11
2023-05-14T15:03:11.446Z,17.27
2023-05-14T15:08:46.682Z,17.04
2023-05-14T15:14:13.649Z,16.83
2023-05-14T15:19:40.723Z,17.03
2023-05-14T15:25:09.151Z,16.52
2023-05-14T15:30:37.939Z,17.78
2023-05-14T15:36:15.271Z,18.14
2023-05-14T15:41:40.260Z,17.70
2023-05-14T15:47:04.045Z,16.88
2023-05-14T15:52:27.489Z,16.20
2023-05-14T15:57:51.887Z,14.62
2023-05-14T16:03:23.215Z,13.42
2023-05-14T16:08:52.370Z,12.79
2023-05-14T16:14:24.910Z,12.53
2023-05-14T16:19:55.367Z,12.16
2023-05-14T16:25:26.876Z,12.04
2023-05-14T16:31:04.682Z,11.97
2023-05-14T16:36:37.503Z,11.67
2023-05-14T16:42:17.765Z,11.63
2023-05-14T16:47:42.556Z,11.72
2023-05-14T16:53:07.155Z,11.59
2023-05-14T16:58:30.711Z,11.26
2023-05-14T17:03:55.520Z,11.02
2023-05-14T17:09:22.383Z,10.88
2023-05-14T17:14:48.159Z,10.79
2023-05-14T17:19:52.082Z,10.68
2023-05-14T17:25:00.080Z,10.76
2023-05-14T17:30:31.979Z,10.74
2023-05-14T17:36:12.885Z,10.82
2023-05-14T17:41:36.458Z,10.83
2023-05-14T17:47:06.014Z,10.88
2023-05-14T17:52:30.862Z,10.90
2023-05-14T17:57:55.227Z,10.92
2023-05-14T18:03:09.482Z,11.07
2023-05-14T18:08:30.188Z,10.95
2023-05-14T18:13:58.917Z,10.90
2023-05-14T18:19:03.480Z,10.95
2023-05-14T18:24:07.969Z,10.90
2023-05-14T18:29:39.958Z,10.81
2023-05-14T18:34:44.054Z,10.77
2023-05-14T18:39:49.204Z,10.66
2023-05-14T18:44:55.391Z,10.67
2023-05-14T18:50:04.874Z,10.60
2023-05-14T18:55:32.044Z,10.57
2023-05-14T19:00:42.816Z,10.69
2023-05-14T19:05:57.651Z,10.63
2023-05-14T19:11:10.017Z,10.42
2023-05-14T19:16:13.774Z,10.32
2023-05-14T19:21:24.169Z,10.10
2023-05-14T19:26:31.006Z,9.93
2023-05-14T19:31:39.568Z,9.79
2023-05-14T19:36:51.192Z,9.68
2023-05-14T19:41:57.243Z,9.67
2023-05-14T19:47:03.529Z,9.70
2023-05-14T19:57:42.863Z,9.80
2023-05-14T20:02:45.811Z,9.80
2023-05-14T20:07:48.895Z,9.83
2023-05-14T20:12:55.047Z,9.93
2023-05-14T20:17:59.517Z,10.06
2023-05-14T20:23:05.915Z,10.19
2023-05-14T20:28:08.503Z,10.16
2023-05-14T20:33:15.115Z,10.16
2023-05-14T20:38:20.021Z,10.24
2023-05-14T20:43:22.832Z,10.21
2023-05-14T20:48:26.635Z,10.28
2023-05-14T20:53:30.367Z,10.21
2023-05-14T20:58:41.003Z,10.24
2023-05-14T21:03:45.068Z,10.19
2023-05-14T21:08:47.875Z,10.19
2023-05-14T21:13:50.783Z,10.17
2023-05-14T21:18:54.695Z,10.11
2023-05-14T21:23:59.339Z,10.18
2023-05-14T21:29:11.955Z,10.09
2023-05-14T21:34:15.123Z,10.12
2023-05-14T21:39:18.925Z,10.02
2023-05-14T21:44:22.984Z,9.86
2023-05-14T21:49:27.812Z,9.88
2023-05-14T21:54:36.287Z,9.87
2023-05-14T21:59:41.026Z,9.84
2023-05-14T22:04:46.107Z,9.90
2023-05-14T22:09:52.787Z,9.96
2023-05-14T22:14:55.989Z,9.88
2023-05-14T22:20:00.407Z,9.84
2023-05-14T22:25:03.323Z,9.92
2023-05-14T22:30:06.715Z,9.83
2023-05-14T22:35:10.464Z,9.65
2023-05-14T22:40:17.813Z,9.74
2023-05-14T22:45:22.229Z,9.70
2023-05-14T22:50:25.584Z,9.70
2023-05-14T22:55:28.767Z,9.64
2023-05-14T23:00:32.227Z,9.67
2023-05-14T23:05:35.865Z,9.70
2023-05-14T23:10:39.159Z,9.71
2023-05-14T23:15:43.438Z,9.66
2023-05-14T23:20:46.936Z,9.60
2023-05-14T23:25:52.751Z,9.61
2023-05-14T23:30:56.476Z,9.63
2023-05-14T23:35:59.997Z,9.66
2023-05-14T23:41:04.266Z,9.65
2023-05-14T23:46:09.088Z,9.64
2023-05-14T23:51:13.756Z,9.65
2023-05-14T23:56:16.949Z,9.66
